Huggins, Missouri
Current Conditions -  °F | °C
As of 3:58 PM on Monday 24 Nov 2014 (Local Time) from KTBN Reporting Station
Overcast Overcast  
Wind Chill: 40°   Ceiling: 5000
Heat Index: 45°   Visibility: 10mi
Dew Point: 29°   Wind: 8mph
Humidity: 53%   Direction: 280°W
Pressure: 29.84"   Gusts: NA
Location:  37.32°N, 92.2°W
Report Text: KTBN 242158Z AUTO 28007KT 10SM OVC050 07/M02 A2984 RMK AO2 SLP113 T00701019
Loading
Personal Weather Stations






























Interactive Weather Map New forecast layout! Learn more

10-Day Weather Forecast

Advertisements
Track Severe Weather on mobile